CSL9 weather

Baie-Comeau (Manic 1) Airport
Baie-Comeau, Quebec, Canada

Public forecast

Using degrees Celsius for public forecast. Weather courtesy of forecast.io.

Closest aviation weather report (METAR) to Baie-Comeau (Manic 1) Airport

Closest report is Baie Comeau Airport, 6.9 nm (12.9 km) ESE. Retrieved 2019/11/17 18:00 UTC (53 minutes ago):

CYBC 171800Z AUTO 24011G16KT 9SM BKN190 M04/M08 A3039 RMK SLP295

Closest aviation forecast (TAF) to Baie-Comeau (Manic 1) Airport

Closest forecast is Baie Comeau Airport, 6.9 nm (12.9 km) ESE. Retrieved 2019/11/17 20:00 UTC (0 seconds ago):

TAF CYBC 171938Z 1720/1808 24010KT P6SM SCT020 TEMPO 1720/1724 BKN020 FM180000 23006KT P6SM SKC RMK FCST BASED ON AUTO OBS NXT FCST BY 180200Z